Time;durP1;ratioP1;P1;durP2;ratioP2;P2;SDS_P1;SDS_P2;PMS_P1;PMS_P2;Temp;Humidity;BMP_temperature;BMP_pressure;BME280_temperature;BME280_humidity;BME280_pressure;Samples;Min_cycle;Max_cycle;Signal;HPM_P1;HPM_P2
2023/03/14 00:00:10;;;;;;;18.40;4.10;;;10.40;99.90;;;;;;5050996;28;20073;-66
2023/03/14 00:02:37;;;;;;;21.23;5.47;;;10.40;99.90;;;;;;5049045;28;20043;-66
2023/03/14 00:05:06;;;;;;;21.08;4.32;;;10.40;99.90;;;;;;5050579;28;20095;-66
2023/03/14 00:07:36;;;;;;;17.50;3.20;;;10.30;99.90;;;;;;5050793;28;20140;-65
2023/03/14 00:10:07;;;;;;;16.42;5.18;;;10.30;99.90;;;;;;5050345;28;20814;-66
2023/03/14 00:12:33;;;;;;;21.48;4.45;;;10.40;99.90;;;;;;5046053;28;20083;-66
2023/03/14 00:15:00;;;;;;;17.95;4.65;;;10.40;99.90;;;;;;5049545;28;20517;-66
2023/03/14 00:17:26;;;;;;;25.08;5.53;;;10.40;99.90;;;;;;5049257;28;20041;-65
2023/03/14 00:19:53;;;;;;;26.02;3.85;;;10.40;99.90;;;;;;5050374;28;20052;-66
2023/03/14 00:22:20;;;;;;;15.35;4.63;;;10.50;99.90;;;;;;5050611;28;20049;-67
2023/03/14 00:24:46;;;;;;;19.20;4.63;;;10.50;99.90;;;;;;5050362;28;20036;-70
2023/03/14 00:27:11;;;;;;;22.92;5.25;;;10.40;99.90;;;;;;5050998;28;20098;-69
2023/03/14 00:29:37;;;;;;;14.30;4.10;;;10.40;99.90;;;;;;5050598;28;20766;-69
2023/03/14 00:32:03;;;;;;;16.38;4.13;;;10.40;99.90;;;;;;5050500;28;20056;-68
2023/03/14 00:34:29;;;;;;;14.75;4.13;;;10.30;99.90;;;;;;5050305;28;20044;-67
2023/03/14 00:36:55;;;;;;;21.73;5.20;;;10.30;99.90;;;;;;5050334;28;20124;-68
2023/03/14 00:39:20;;;;;;;17.42;4.88;;;10.30;99.90;;;;;;5050188;28;20119;-67
2023/03/14 00:41:47;;;;;;;13.23;3.75;;;10.30;99.90;;;;;;5050198;28;20044;-68
2023/03/14 00:44:12;;;;;;;23.00;3.95;;;10.30;99.90;;;;;;5058133;28;20496;-68
2023/03/14 00:46:38;;;;;;;21.80;4.40;;;10.30;99.90;;;;;;5069956;28;20051;-68
2023/03/14 00:49:04;;;;;;;15.30;4.68;;;10.30;99.90;;;;;;5069973;28;20672;-68
2023/03/14 00:51:30;;;;;;;10.65;4.15;;;10.20;99.90;;;;;;5069648;28;20036;-67
2023/03/14 00:53:55;;;;;;;9.63;4.28;;;10.20;99.90;;;;;;5069695;28;20041;-69
2023/03/14 00:56:21;;;;;;;13.70;5.07;;;10.20;99.90;;;;;;5069880;28;20063;-68
2023/03/14 00:58:46;;;;;;;9.60;4.15;;;10.20;99.90;;;;;;5057898;28;20041;-68
2023/03/14 01:01:15;;;;;;;10.88;4.47;;;10.20;99.90;;;;;;5049965;28;20060;-68
2023/03/14 01:03:41;;;;;;;9.55;4.70;;;10.30;99.90;;;;;;5049725;28;20347;-68
2023/03/14 01:06:08;;;;;;;14.43;4.85;;;10.30;99.90;;;;;;5049072;28;20494;-68
2023/03/14 01:08:33;;;;;;;15.55;4.78;;;10.20;99.90;;;;;;5049541;28;20049;-68
2023/03/14 01:10:59;;;;;;;13.25;4.22;;;10.20;99.90;;;;;;5049606;28;20130;-68
2023/03/14 01:13:24;;;;;;;10.98;3.85;;;10.10;99.90;;;;;;5048318;28;20037;-68
2023/03/14 01:15:50;;;;;;;13.48;3.83;;;10.20;99.90;;;;;;5049420;28;20521;-69
2023/03/14 01:18:15;;;;;;;12.65;3.28;;;10.10;99.90;;;;;;5049123;28;20032;-68
2023/03/14 01:20:41;;;;;;;11.82;3.38;;;10.10;99.90;;;;;;5049421;28;20107;-68
2023/03/14 01:23:07;;;;;;;14.15;3.30;;;10.10;99.90;;;;;;5049596;28;20516;-68
2023/03/14 01:25:32;;;;;;;10.57;4.85;;;10.10;99.90;;;;;;5048934;28;20048;-68
2023/03/14 01:27:58;;;;;;;9.77;3.20;;;10.00;99.90;;;;;;5049135;28;20029;-68
2023/03/14 01:30:23;;;;;;;7.90;3.55;;;10.00;99.90;;;;;;5049070;28;20095;-67
2023/03/14 01:32:49;;;;;;;17.20;3.70;;;9.90;99.90;;;;;;5048731;28;20524;-68
2023/03/14 01:35:14;;;;;;;19.30;3.30;;;9.90;99.90;;;;;;5048874;28;20080;-67
2023/03/14 01:37:40;;;;;;;10.90;3.63;;;9.90;99.90;;;;;;5049047;28;20036;-68
2023/03/14 01:40:06;;;;;;;16.92;4.15;;;9.90;99.90;;;;;;5048971;28;20580;-67
2023/03/14 01:42:32;;;;;;;11.52;3.60;;;9.90;99.90;;;;;;5048497;28;20051;-67
2023/03/14 01:45:00;;;;;;;17.60;3.60;;;9.90;99.90;;;;;;5044788;28;20045;-67
2023/03/14 01:47:26;;;;;;;14.18;3.97;;;9.90;99.90;;;;;;5043527;28;20068;-67
2023/03/14 01:50:10;;;;;;;13.35;4.20;;;9.90;99.90;;;;;;5047302;28;20053;-67
2023/03/14 01:52:41;;;;;;;17.92;4.72;;;9.90;99.90;;;;;;5049118;28;20045;-67
2023/03/14 01:55:12;;;;;;;13.00;4.22;;;9.90;99.90;;;;;;5048772;28;20051;-67
2023/03/14 01:57:45;;;;;;;14.63;4.50;;;9.90;99.90;;;;;;5048873;28;20041;-67
2023/03/14 02:00:16;;;;;;;15.63;4.05;;;10.00;99.90;;;;;;5048570;28;20108;-68
2023/03/14 02:02:51;;;;;;;8.60;3.42;;;10.00;99.90;;;;;;5048974;28;20074;-67
2023/03/14 02:05:24;;;;;;;14.25;4.40;;;10.00;99.90;;;;;;5047029;28;20045;-67
2023/03/14 02:07:52;;;;;;;12.40;4.43;;;10.00;99.90;;;;;;5028883;28;20052;-67
2023/03/14 02:10:21;;;;;;;16.10;3.75;;;10.00;99.90;;;;;;5028636;28;20526;-67
2023/03/14 02:12:52;;;;;;;20.00;5.57;;;10.00;99.90;;;;;;5028135;28;20057;-67
2023/03/14 02:15:18;;;;;;;19.27;4.40;;;10.00;99.90;;;;;;5028073;28;20049;-65
2023/03/14 02:17:45;;;;;;;13.27;3.75;;;10.00;99.90;;;;;;5028127;28;20044;-67
2023/03/14 02:20:30;;;;;;;12.02;4.03;;;10.10;99.90;;;;;;5028286;28;20049;-67
2023/03/14 02:22:56;;;;;;;18.20;4.13;;;10.00;99.90;;;;;;5042149;28;20037;-67
2023/03/14 02:25:43;;;;;;;17.77;4.13;;;10.00;99.90;;;;;;5047710;28;20086;-67
2023/03/14 02:28:10;;;;;;;13.40;4.78;;;10.00;99.90;;;;;;5028247;28;20076;-67
2023/03/14 02:30:36;;;;;;;11.80;4.30;;;10.00;99.90;;;;;;5028287;28;20049;-67
2023/03/14 02:33:05;;;;;;;11.15;3.50;;;10.00;99.90;;;;;;5028397;28;20040;-67
2023/03/14 02:35:44;;;;;;;15.10;3.72;;;10.00;99.90;;;;;;5028041;28;20037;-67
2023/03/14 02:38:38;;;;;;;15.43;3.85;;;10.00;99.90;;;;;;5028142;28;20398;-67
2023/03/14 02:41:04;;;;;;;15.38;3.97;;;10.00;99.90;;;;;;5028167;28;20112;-67
2023/03/14 02:43:29;;;;;;;8.63;3.15;;;10.00;99.90;;;;;;5027973;28;20183;-67
2023/03/14 02:45:55;;;;;;;7.45;2.47;;;10.10;99.90;;;;;;5027923;28;20810;-67
2023/03/14 02:48:30;;;;;;;8.52;3.05;;;10.10;99.90;;;;;;5028098;28;20510;-67
2023/03/14 02:50:59;;;;;;;10.07;2.60;;;10.00;99.90;;;;;;5028220;28;20049;-67
2023/03/14 02:53:31;;;;;;;8.85;2.40;;;10.00;99.90;;;;;;5028198;28;20112;-67
2023/03/14 02:55:57;;;;;;;6.65;2.53;;;10.00;99.90;;;;;;5028027;28;20049;-67
2023/03/14 02:58:23;;;;;;;6.18;2.75;;;10.00;99.90;;;;;;5027987;28;20068;-67
2023/03/14 03:00:48;;;;;;;14.25;3.38;;;10.00;99.90;;;;;;5028140;28;20505;-65
2023/03/14 03:03:14;;;;;;;4.47;2.30;;;9.90;99.90;;;;;;5027911;28;20048;-67
2023/03/14 03:05:40;;;;;;;6.03;2.58;;;9.90;99.90;;;;;;5027715;28;20045;-67
2023/03/14 03:08:06;;;;;;;12.40;3.25;;;9.90;99.90;;;;;;5027960;28;20148;-67
2023/03/14 03:10:32;;;;;;;5.07;2.72;;;9.90;99.90;;;;;;5027973;28;20129;-66
2023/03/14 03:12:58;;;;;;;4.63;2.47;;;9.80;99.90;;;;;;5027508;28;20041;-67
2023/03/14 03:15:23;;;;;;;7.15;3.00;;;9.80;99.90;;;;;;5027381;28;20048;-67
2023/03/14 03:17:49;;;;;;;11.35;2.47;;;9.80;99.90;;;;;;5027867;28;20065;-67
2023/03/14 03:20:15;;;;;;;10.30;3.15;;;9.80;99.90;;;;;;5026230;28;20528;-66
2023/03/14 03:22:41;;;;;;;5.38;2.88;;;9.70;99.90;;;;;;5027831;28;20085;-67
2023/03/14 03:25:07;;;;;;;11.45;2.60;;;9.70;99.90;;;;;;5027280;28;20144;-67
2023/03/14 03:27:35;;;;;;;11.45;2.70;;;9.70;99.90;;;;;;5027541;28;20045;-67
2023/03/14 03:30:02;;;;;;;7.10;2.40;;;9.70;99.90;;;;;;5027352;28;20100;-67
2023/03/14 03:32:28;;;;;;;6.78;2.90;;;9.70;99.90;;;;;;5031568;28;20046;-67
2023/03/14 03:34:53;;;;;;;14.52;3.03;;;9.70;99.90;;;;;;5031572;28;20045;-67
2023/03/14 03:37:19;;;;;;;10.23;3.03;;;9.70;99.90;;;;;;5031720;28;20045;-67
2023/03/14 03:39:45;;;;;;;9.63;2.67;;;9.60;99.90;;;;;;5031578;28;20037;-67
2023/03/14 03:42:10;;;;;;;7.50;2.88;;;9.70;99.90;;;;;;5031377;28;20037;-67
2023/03/14 03:44:36;;;;;;;7.70;3.10;;;9.70;99.90;;;;;;5031343;28;20033;-67
2023/03/14 03:47:02;;;;;;;12.57;3.85;;;9.60;99.90;;;;;;5031393;28;20505;-67
2023/03/14 03:49:30;;;;;;;11.52;3.15;;;9.60;99.90;;;;;;5031287;28;20041;-67
2023/03/14 03:51:55;;;;;;;6.75;2.60;;;9.60;99.90;;;;;;5031089;28;20045;-67
2023/03/14 03:54:21;;;;;;;10.90;3.25;;;9.60;99.90;;;;;;5030902;28;20578;-67
2023/03/14 03:56:46;;;;;;;9.88;3.00;;;9.60;99.90;;;;;;5031045;28;20041;-67
2023/03/14 03:59:12;;;;;;;7.47;2.53;;;9.50;99.90;;;;;;5029407;28;20068;-67
2023/03/14 04:01:38;;;;;;;8.00;2.78;;;9.60;99.90;;;;;;5030793;28;20049;-67
2023/03/14 04:04:03;;;;;;;9.13;2.55;;;9.60;99.90;;;;;;5012568;28;20072;-67
2023/03/14 04:06:29;;;;;;;10.65;2.53;;;9.60;99.90;;;;;;5030830;28;20080;-67
2023/03/14 04:08:55;;;;;;;10.75;4.10;;;9.60;99.90;;;;;;5030827;28;20052;-67
2023/03/14 04:11:20;;;;;;;14.55;2.70;;;9.60;99.90;;;;;;5029183;28;20099;-67
2023/03/14 04:13:46;;;;;;;6.97;2.38;;;9.60;99.90;;;;;;5030113;28;20043;-67
2023/03/14 04:16:16;;;;;;;11.45;2.75;;;9.60;99.90;;;;;;5030836;28;20073;-67
2023/03/14 04:18:42;;;;;;;9.10;3.35;;;9.60;99.90;;;;;;5030835;28;20068;-67
2023/03/14 04:21:07;;;;;;;6.90;2.83;;;9.60;99.90;;;;;;5029548;28;20045;-67
2023/03/14 04:23:33;;;;;;;6.75;3.45;;;9.50;99.90;;;;;;5030825;28;20577;-67
2023/03/14 04:25:59;;;;;;;10.48;4.32;;;9.50;99.90;;;;;;5030664;28;20087;-67
2023/03/14 04:28:25;;;;;;;6.20;2.80;;;9.50;99.90;;;;;;5030726;28;20048;-67
2023/03/14 04:30:50;;;;;;;9.80;2.88;;;9.50;99.90;;;;;;5030451;28;20049;-67
2023/03/14 04:33:17;;;;;;;6.78;2.88;;;9.50;99.90;;;;;;5030680;28;20037;-67
2023/03/14 04:35:43;;;;;;;8.77;2.90;;;9.50;99.90;;;;;;5030140;28;20041;-67
2023/03/14 04:38:10;;;;;;;10.82;3.42;;;9.40;99.90;;;;;;5030446;28;20037;-67
2023/03/14 04:40:40;;;;;;;6.30;3.58;;;9.40;99.90;;;;;;5028454;28;20106;-67
2023/03/14 04:43:06;;;;;;;10.20;3.28;;;9.40;99.90;;;;;;5027989;28;20068;-67
2023/03/14 04:45:32;;;;;;;10.27;3.80;;;9.40;99.90;;;;;;5030183;28;20127;-67
2023/03/14 04:47:57;;;;;;;10.55;4.57;;;9.40;99.90;;;;;;5030498;28;20117;-67
2023/03/14 04:50:23;;;;;;;8.15;3.40;;;9.40;99.90;;;;;;5030791;28;20076;-67
2023/03/14 04:52:49;;;;;;;16.00;5.32;;;9.40;99.90;;;;;;5030320;28;20041;-67
2023/03/14 04:55:14;;;;;;;11.88;4.03;;;9.40;99.90;;;;;;5029911;28;20041;-67
2023/03/14 04:57:40;;;;;;;11.57;4.03;;;9.40;99.90;;;;;;5029703;28;20595;-67
2023/03/14 05:00:07;;;;;;;13.10;3.83;;;9.40;99.90;;;;;;5029767;28;20537;-67
2023/03/14 05:02:33;;;;;;;9.32;3.90;;;9.50;99.90;;;;;;5050406;28;20083;-67
2023/03/14 05:04:58;;;;;;;9.27;3.25;;;9.30;99.90;;;;;;5049285;28;20068;-65
2023/03/14 05:07:24;;;;;;;10.00;3.92;;;9.40;99.90;;;;;;5049149;28;20544;-67
2023/03/14 05:09:50;;;;;;;7.60;3.92;;;9.40;99.90;;;;;;5049382;28;20414;-67
2023/03/14 05:12:15;;;;;;;5.63;3.17;;;9.40;99.90;;;;;;5048622;28;20037;-67
2023/03/14 05:14:41;;;;;;;11.35;3.60;;;9.40;99.90;;;;;;5049142;28;20049;-67
2023/03/14 05:17:06;;;;;;;8.57;3.17;;;9.40;99.90;;;;;;5049290;28;20037;-67
2023/03/14 05:19:32;;;;;;;7.63;3.15;;;9.40;99.90;;;;;;5049495;28;20098;-67
2023/03/14 05:21:57;;;;;;;8.93;4.07;;;9.40;99.90;;;;;;5031309;28;20052;-66
2023/03/14 05:24:23;;;;;;;11.25;4.35;;;9.40;99.90;;;;;;5049136;28;20045;-65
2023/03/14 05:26:49;;;;;;;11.35;3.67;;;9.40;99.90;;;;;;5049244;28;20520;-67
2023/03/14 05:29:14;;;;;;;7.05;3.50;;;9.40;99.90;;;;;;5047871;28;20052;-67
2023/03/14 05:31:40;;;;;;;9.82;3.00;;;9.40;99.90;;;;;;5048959;28;20045;-67
2023/03/14 05:34:05;;;;;;;11.52;4.35;;;9.30;99.90;;;;;;5048902;28;20039;-67
2023/03/14 05:36:31;;;;;;;6.25;2.90;;;9.40;99.90;;;;;;5049013;28;20106;-67
2023/03/14 05:38:57;;;;;;;7.28;2.88;;;9.30;99.90;;;;;;5048834;28;20052;-67
2023/03/14 05:41:22;;;;;;;12.75;3.95;;;9.40;99.90;;;;;;5048883;28;20049;-67
2023/03/14 05:43:48;;;;;;;8.98;3.40;;;9.30;99.90;;;;;;5048514;28;20044;-67
2023/03/14 05:46:13;;;;;;;9.30;3.03;;;9.30;99.90;;;;;;5048651;28;20055;-67
2023/03/14 05:48:39;;;;;;;9.25;2.55;;;9.30;99.90;;;;;;5047626;28;20072;-67
2023/03/14 05:51:05;;;;;;;12.35;5.65;;;9.30;99.90;;;;;;5048845;28;20041;-67
2023/03/14 05:53:31;;;;;;;8.00;3.10;;;9.20;99.90;;;;;;5046666;28;20409;-67
2023/03/14 05:55:56;;;;;;;12.10;3.40;;;9.30;99.90;;;;;;5048302;28;20036;-67
2023/03/14 05:58:22;;;;;;;8.85;3.00;;;9.30;99.90;;;;;;5048557;28;20119;-67
2023/03/14 06:00:48;;;;;;;10.70;2.90;;;9.30;99.90;;;;;;5048364;28;20045;-67
2023/03/14 06:03:13;;;;;;;13.35;2.95;;;9.30;99.90;;;;;;5046695;28;20044;-68
2023/03/14 06:05:39;;;;;;;12.32;3.65;;;9.30;99.90;;;;;;5045370;28;20041;-67
2023/03/14 06:08:05;;;;;;;7.72;3.08;;;9.30;99.90;;;;;;5046564;28;20124;-67
2023/03/14 06:10:30;;;;;;;15.43;3.55;;;9.20;99.90;;;;;;5048738;28;20120;-68
2023/03/14 06:12:56;;;;;;;11.93;3.05;;;9.20;99.90;;;;;;5047416;28;20520;-68
2023/03/14 06:15:22;;;;;;;5.75;2.88;;;9.20;99.90;;;;;;5046866;28;20051;-68
2023/03/14 06:17:47;;;;;;;12.73;3.92;;;9.20;99.90;;;;;;5048325;28;20132;-67
2023/03/14 06:20:13;;;;;;;12.52;3.45;;;9.30;99.90;;;;;;5048218;28;20409;-67
2023/03/14 06:22:40;;;;;;;15.45;3.80;;;9.30;99.90;;;;;;5030353;28;20131;-68
2023/03/14 06:25:06;;;;;;;7.45;2.92;;;9.30;99.90;;;;;;5047393;28;20041;-67
2023/03/14 06:27:32;;;;;;;7.15;2.60;;;9.30;99.90;;;;;;5047265;28;20041;-67
2023/03/14 06:29:58;;;;;;;12.30;3.75;;;9.40;99.90;;;;;;5047612;28;20041;-68
2023/03/14 06:32:24;;;;;;;9.48;3.22;;;9.30;99.90;;;;;;5047210;28;20037;-67
2023/03/14 06:34:50;;;;;;;6.90;3.60;;;9.30;99.90;;;;;;5047361;28;20707;-67
2023/03/14 06:37:16;;;;;;;12.95;3.67;;;9.30;99.90;;;;;;5048165;28;20076;-68
2023/03/14 06:39:43;;;;;;;13.05;3.63;;;9.30;99.90;;;;;;5047820;28;20079;-68
2023/03/14 06:42:09;;;;;;;12.25;4.47;;;9.30;99.90;;;;;;5047835;28;20056;-68
2023/03/14 06:44:35;;;;;;;11.98;3.75;;;9.30;99.90;;;;;;5047624;28;20041;-67
2023/03/14 06:47:00;;;;;;;11.85;3.55;;;9.30;99.90;;;;;;5048194;28;20044;-68
2023/03/14 06:49:26;;;;;;;12.57;4.00;;;9.30;99.90;;;;;;5047955;28;20517;-68
2023/03/14 06:51:52;;;;;;;8.27;3.20;;;9.30;99.90;;;;;;5048256;28;20049;-67
2023/03/14 06:54:17;;;;;;;16.13;3.80;;;9.40;99.90;;;;;;5047814;28;20140;-68
2023/03/14 06:56:43;;;;;;;7.68;3.20;;;9.40;99.90;;;;;;5046538;28;20079;-69
2023/03/14 06:59:08;;;;;;;9.90;4.25;;;9.40;99.90;;;;;;5047804;28;20068;-69
2023/03/14 07:01:34;;;;;;;10.30;3.80;;;9.40;99.90;;;;;;5048254;28;20036;-68
2023/03/14 07:04:01;;;;;;;6.28;3.17;;;9.40;99.90;;;;;;5048014;28;20044;-68
2023/03/14 07:06:29;;;;;;;11.95;3.90;;;9.40;99.90;;;;;;5051785;28;20685;-68
2023/03/14 07:08:55;;;;;;;8.23;3.28;;;9.40;99.90;;;;;;5053360;28;20080;-68
2023/03/14 07:11:21;;;;;;;8.60;4.47;;;9.40;99.90;;;;;;5052322;28;20080;-68
2023/03/14 07:13:47;;;;;;;7.80;3.80;;;9.40;99.90;;;;;;5052147;28;20037;-68
2023/03/14 07:16:12;;;;;;;6.00;4.10;;;9.40;99.90;;;;;;5052357;28;20413;-68
2023/03/14 07:18:38;;;;;;;10.23;3.17;;;9.40;99.90;;;;;;5052807;28;20041;-68
2023/03/14 07:21:05;;;;;;;10.27;3.33;;;9.40;99.90;;;;;;5052890;28;20072;-68
2023/03/14 07:23:30;;;;;;;6.70;3.55;;;9.50;99.90;;;;;;5051795;28;20044;-68
2023/03/14 07:25:56;;;;;;;11.00;3.75;;;9.40;99.90;;;;;;5051461;28;20040;-67
2023/03/14 07:28:22;;;;;;;13.10;3.40;;;9.50;99.90;;;;;;5051564;28;20566;-68
2023/03/14 07:30:48;;;;;;;7.03;3.17;;;9.40;99.90;;;;;;5052059;28;20132;-68
2023/03/14 07:33:15;;;;;;;5.63;2.03;;;9.40;99.90;;;;;;5051941;28;20112;-68
2023/03/14 07:35:40;;;;;;;2.38;1.98;;;9.40;99.90;;;;;;5051687;28;20044;-68
2023/03/14 07:38:06;;;;;;;3.20;1.67;;;9.40;99.90;;;;;;5051388;28;20079;-68
2023/03/14 07:40:31;;;;;;;4.30;1.52;;;9.30;99.90;;;;;;5051583;28;20123;-68
2023/03/14 07:42:57;;;;;;;1.50;1.40;;;9.30;99.90;;;;;;5051494;28;20056;-68
2023/03/14 07:45:23;;;;;;;3.55;1.48;;;9.30;99.90;;;;;;5046530;28;20853;-68
2023/03/14 07:47:48;;;;;;;4.65;1.40;;;9.20;99.90;;;;;;5048731;28;20044;-68
2023/03/14 07:50:14;;;;;;;2.45;1.80;;;9.20;99.90;;;;;;5051054;28;20049;-69
2023/03/14 07:52:39;;;;;;;1.63;1.15;;;9.10;99.90;;;;;;5051186;28;20413;-70
2023/03/14 07:55:05;;;;;;;2.65;1.10;;;8.70;99.90;;;;;;5050585;28;20048;-68
2023/03/14 07:57:31;;;;;;;1.85;1.10;;;8.60;99.90;;;;;;5050667;28;20583;-67
2023/03/14 07:59:57;;;;;;;3.47;1.10;;;8.30;99.90;;;;;;5050705;28;20037;-68
2023/03/14 08:02:23;;;;;;;5.72;1.35;;;8.20;99.90;;;;;;5050921;28;20215;-68
2023/03/14 08:04:50;;;;;;;4.45;1.42;;;7.90;99.90;;;;;;5049328;28;20048;-68
2023/03/14 08:07:15;;;;;;;1.20;1.00;;;7.60;99.90;;;;;;5052568;28;20048;-68
2023/03/14 08:09:41;;;;;;;4.32;1.23;;;7.50;99.90;;;;;;5051575;28;20041;-68
2023/03/14 08:12:07;;;;;;;1.33;1.10;;;7.30;99.90;;;;;;5039058;28;20037;-67
2023/03/14 08:14:33;;;;;;;6.30;1.20;;;7.20;99.90;;;;;;5038683;28;20059;-67
2023/03/14 08:16:58;;;;;;;4.28;1.33;;;7.10;99.90;;;;;;5039418;28;20152;-67
2023/03/14 08:19:24;;;;;;;2.88;1.33;;;7.00;99.90;;;;;;5039546;28;20037;-67
2023/03/14 08:21:50;;;;;;;3.95;1.20;;;7.00;99.90;;;;;;5030381;28;20049;-66
2023/03/14 08:24:16;;;;;;;2.38;1.13;;;6.90;99.90;;;;;;5035914;28;20071;-67
2023/03/14 08:26:42;;;;;;;3.33;1.10;;;6.90;99.90;;;;;;5050247;28;20079;-67
2023/03/14 08:29:08;;;;;;;2.40;0.90;;;6.90;99.90;;;;;;5050237;28;20072;-68
2023/03/14 08:31:35;;;;;;;1.75;1.02;;;6.70;99.90;;;;;;5050651;28;20037;-68
2023/03/14 08:34:01;;;;;;;5.38;1.13;;;6.60;99.90;;;;;;5050722;28;20052;-67
2023/03/14 08:36:27;;;;;;;1.05;0.85;;;6.40;99.90;;;;;;5049230;28;20090;-67
2023/03/14 08:38:53;;;;;;;1.60;0.90;;;6.10;99.90;;;;;;5050846;28;20759;-67
2023/03/14 08:41:19;;;;;;;2.95;1.20;;;6.00;99.90;;;;;;5051186;28;20041;-66
2023/03/14 08:43:44;;;;;;;0.80;0.80;;;6.00;99.90;;;;;;5048945;28;20413;-68
2023/03/14 08:46:10;;;;;;;0.80;0.80;;;6.10;99.90;;;;;;5046696;28;20041;-67
2023/03/14 08:48:36;;;;;;;0.93;0.93;;;5.90;99.90;;;;;;5030002;28;20439;-67
2023/03/14 08:51:13;;;;;;;0.90;0.90;;;6.00;99.90;;;;;;5044766;28;20511;-68
2023/03/14 08:53:39;;;;;;;2.92;0.95;;;6.10;99.90;;;;;;5034730;28;20103;-67
2023/03/14 08:56:06;;;;;;;3.72;1.17;;;5.90;99.90;;;;;;5037491;28;20115;-67
2023/03/14 08:58:32;;;;;;;1.23;0.90;;;5.90;99.90;;;;;;5053737;28;20076;-67
2023/03/14 09:00:58;;;;;;;3.50;1.02;;;6.00;99.90;;;;;;5029690;28;20041;-68
2023/03/14 09:03:25;;;;;;;1.58;1.08;;;6.00;99.90;;;;;;5029838;28;20572;-66
2023/03/14 09:05:51;;;;;;;8.98;1.17;;;5.90;99.90;;;;;;5028534;28;20037;-67
2023/03/14 09:08:17;;;;;;;3.25;1.20;;;5.80;99.90;;;;;;5029797;28;20047;-66
2023/03/14 09:10:42;;;;;;;4.70;1.45;;;5.90;99.90;;;;;;5029517;28;20041;-66
2023/03/14 09:13:08;;;;;;;6.53;1.25;;;5.90;99.90;;;;;;5029409;28;20069;-66
2023/03/14 09:15:34;;;;;;;2.00;1.30;;;6.00;99.90;;;;;;5029376;28;20072;-66
2023/03/14 09:17:59;;;;;;;3.42;2.13;;;6.00;99.90;;;;;;5027985;28;20041;-66
2023/03/14 09:20:25;;;;;;;1.20;1.10;;;6.00;99.90;;;;;;5029385;28;20041;-66
2023/03/14 09:22:50;;;;;;;3.15;1.30;;;6.00;99.90;;;;;;5029694;28;20132;-67
2023/03/14 09:25:16;;;;;;;4.07;1.08;;;6.00;99.90;;;;;;5028964;28;20347;-67
2023/03/14 09:27:42;;;;;;;4.22;1.58;;;6.10;99.90;;;;;;5028583;28;20049;-66
2023/03/14 09:30:08;;;;;;;2.88;1.15;;;6.00;99.90;;;;;;5028152;28;20041;-66
2023/03/14 09:32:34;;;;;;;9.88;1.70;;;6.10;99.90;;;;;;5031617;28;20042;-66
2023/03/14 09:35:00;;;;;;;1.35;1.02;;;6.20;99.90;;;;;;5042522;28;20037;-66
2023/03/14 09:37:26;;;;;;;3.75;1.35;;;6.30;99.90;;;;;;5037738;28;20033;-66
2023/03/14 09:39:51;;;;;;;4.63;1.10;;;6.30;99.90;;;;;;5040461;28;20418;-66
2023/03/14 09:42:21;;;;;;;3.90;1.02;;;6.30;99.90;;;;;;5042465;28;20452;-66
2023/03/14 09:45:05;;;;;;;5.72;1.33;;;6.30;99.90;;;;;;5038473;28;20052;-66
2023/03/14 09:47:32;;;;;;;1.63;1.25;;;6.30;99.90;;;;;;5039041;28;20270;-66
2023/03/14 09:50:01;;;;;;;5.25;1.42;;;6.40;99.90;;;;;;5037413;28;20038;-66
2023/03/14 09:52:33;;;;;;;5.07;1.58;;;6.50;99.90;;;;;;5038742;28;20072;-66
2023/03/14 09:55:09;;;;;;;11.85;2.38;;;6.60;99.90;;;;;;5047878;28;20048;-66
2023/03/14 09:57:36;;;;;;;13.88;2.30;;;6.60;99.90;;;;;;5037855;28;20518;-66
2023/03/14 10:00:26;;;;;;;10.40;1.80;;;6.80;99.90;;;;;;5040747;28;20124;-66
2023/03/14 10:03:15;;;;;;;8.13;2.10;;;6.80;99.90;;;;;;5032030;28;20057;-66
2023/03/14 10:05:42;;;;;;;7.90;1.70;;;6.80;99.90;;;;;;5037324;28;20053;-66
2023/03/14 10:08:12;;;;;;;7.97;2.50;;;6.90;99.90;;;;;;5047288;28;20044;-66
2023/03/14 10:10:38;;;;;;;20.00;2.58;;;6.80;99.90;;;;;;5048559;28;20053;-66
2023/03/14 10:13:09;;;;;;;18.88;3.22;;;6.90;99.90;;;;;;5040948;28;20431;-66
2023/03/14 10:15:36;;;;;;;16.70;2.03;;;6.90;99.90;;;;;;5033037;28;20574;-66
2023/03/14 10:18:04;;;;;;;8.07;2.10;;;7.00;99.90;;;;;;5046447;28;20138;-66
2023/03/14 10:20:45;;;;;;;12.68;3.40;;;6.80;99.90;;;;;;5056048;28;20429;-67
2023/03/14 10:23:14;;;;;;;15.43;2.47;;;6.80;99.90;;;;;;5047850;28;20044;-66
2023/03/14 10:25:46;;;;;;;10.68;2.80;;;6.90;99.90;;;;;;5046526;28;20053;-66
2023/03/14 10:28:25;;;;;;;11.30;2.87;;;6.90;99.90;;;;;;5048238;28;20040;-66
2023/03/14 10:30:50;;;;;;;13.50;2.35;;;7.00;99.90;;;;;;5046459;28;20098;-66
2023/03/14 10:33:24;;;;;;;22.17;2.92;;;6.90;99.90;;;;;;5047582;28;20424;-66
2023/03/14 10:35:56;;;;;;;14.13;2.28;;;6.80;99.90;;;;;;5047763;28;20450;-66
2023/03/14 10:38:25;;;;;;;14.85;2.13;;;6.70;99.90;;;;;;5037946;28;20163;-67
2023/03/14 10:40:53;;;;;;;16.90;2.50;;;6.80;99.90;;;;;;5040909;28;20049;-69
2023/03/14 10:43:26;;;;;;;12.63;2.45;;;6.80;99.90;;;;;;5042252;28;20037;-69
2023/03/14 10:45:57;;;;;;;11.65;2.50;;;7.00;99.90;;;;;;5029693;28;20045;-69
2023/03/14 10:48:28;;;;;;;17.58;3.15;;;7.00;99.90;;;;;;5051880;28;20069;-68
2023/03/14 10:50:56;;;;;;;14.18;2.80;;;7.10;99.90;;;;;;5027136;28;20073;-67
2023/03/14 10:53:22;;;;;;;25.50;3.88;;;7.10;99.90;;;;;;5027864;28;20932;-67
2023/03/14 10:55:48;;;;;;;17.13;3.00;;;7.10;99.90;;;;;;5034722;28;20121;-66
2023/03/14 10:58:27;;;;;;;21.98;3.08;;;7.10;99.90;;;;;;5027962;28;20044;-67
2023/03/14 11:01:29;;;;;;;12.98;2.88;;;7.00;99.90;;;;;;5027599;28;20041;-68
2023/03/14 11:04:12;;;;;;;14.20;2.95;;;7.10;99.90;;;;;;5014482;28;20037;-68
2023/03/14 11:06:52;;;;;;;17.83;2.75;;;7.20;99.90;;;;;;5029139;28;20037;-67
2023/03/14 11:09:46;;;;;;;19.17;3.30;;;7.10;99.90;;;;;;5034192;28;20052;-68
2023/03/14 11:12:30;;;;;;;10.30;2.55;;;7.10;99.90;;;;;;5032791;28;20049;-67
2023/03/14 11:15:26;;;;;;;18.45;2.50;;;7.10;99.90;;;;;;5034798;28;20036;-67
2023/03/14 11:18:06;;;;;;;11.85;2.88;;;7.20;99.90;;;;;;5016324;28;20049;-67
2023/03/14 11:20:37;;;;;;;12.38;3.45;;;7.30;99.90;;;;;;5043327;28;20041;-66
2023/03/14 11:23:07;;;;;;;15.27;2.90;;;7.20;99.90;;;;;;5027490;28;20413;-67
2023/03/14 11:25:46;;;;;;;19.25;3.17;;;7.20;99.90;;;;;;5035189;28;20079;-67
2023/03/14 11:28:23;;;;;;;6.75;1.90;;;7.10;99.90;;;;;;5027608;28;20052;-67
2023/03/14 11:30:54;;;;;;;17.80;2.58;;;7.20;99.90;;;;;;5027786;28;20053;-67
2023/03/14 11:33:28;;;;;;;13.73;1.98;;;7.20;99.90;;;;;;5027921;28;20045;-67
2023/03/14 11:36:15;;;;;;;13.77;2.90;;;7.30;99.90;;;;;;5026143;28;20038;-67
2023/03/14 11:38:50;;;;;;;6.57;1.90;;;7.30;99.90;;;;;;5027767;28;20050;-67
2023/03/14 11:41:39;;;;;;;11.43;2.60;;;7.40;99.90;;;;;;5027884;28;20128;-67
2023/03/14 11:44:19;;;;;;;11.63;2.22;;;7.40;99.90;;;;;;5041707;28;20044;-67
2023/03/14 11:47:02;;;;;;;7.88;2.70;;;7.40;99.90;;;;;;5047922;28;20477;-67
2023/03/14 11:49:40;;;;;;;11.38;2.63;;;7.30;99.90;;;;;;5047548;28;20037;-67
2023/03/14 11:52:19;;;;;;;10.65;2.40;;;7.30;99.90;;;;;;5050061;28;20099;-67
2023/03/14 11:55:06;;;;;;;16.05;2.15;;;7.40;99.90;;;;;;5051337;28;20037;-67
2023/03/14 11:57:32;;;;;;;15.02;2.10;;;7.30;99.90;;;;;;5049194;28;20036;-67
2023/03/14 12:00:00;;;;;;;9.93;2.72;;;7.40;99.90;;;;;;5044207;28;20056;-67
2023/03/14 12:02:44;;;;;;;6.22;2.15;;;7.30;99.90;;;;;;5042442;28;20098;-67
2023/03/14 12:05:31;;;;;;;11.13;2.20;;;7.40;99.90;;;;;;5046396;28;20051;-67
2023/03/14 12:07:59;;;;;;;10.68;2.25;;;7.40;99.90;;;;;;5051192;28;20116;-67
2023/03/14 12:10:25;;;;;;;11.82;2.05;;;7.60;99.90;;;;;;5050894;28;20041;-67
2023/03/14 12:12:52;;;;;;;15.13;2.30;;;7.50;99.90;;;;;;5049302;28;20746;-67
2023/03/14 12:15:22;;;;;;;7.65;1.80;;;7.50;99.90;;;;;;5050855;28;20116;-68
2023/03/14 12:17:54;;;;;;;14.20;1.95;;;7.30;99.90;;;;;;5051102;28;20052;-67
2023/03/14 12:20:23;;;;;;;11.97;2.47;;;7.20;99.90;;;;;;5049788;28;20036;-67
2023/03/14 12:22:56;;;;;;;6.88;2.00;;;7.20;99.90;;;;;;5051045;28;20331;-67
2023/03/14 12:25:25;;;;;;;9.85;1.73;;;7.30;99.90;;;;;;5050697;28;20404;-67
2023/03/14 12:27:57;;;;;;;8.00;1.98;;;7.30;99.90;;;;;;5050797;28;20045;-68
2023/03/14 12:30:32;;;;;;;9.73;2.10;;;7.50;99.90;;;;;;5046624;28;20048;-66
2023/03/14 12:33:12;;;;;;;4.57;1.58;;;7.50;99.90;;;;;;5050618;28;20646;-64
2023/03/14 12:35:52;;;;;;;4.55;1.67;;;7.60;99.90;;;;;;5048645;28;20036;-65
2023/03/14 12:38:36;;;;;;;7.00;1.40;;;7.60;99.90;;;;;;5045512;28;20103;-65
2023/03/14 12:41:37;;;;;;;8.63;2.15;;;7.60;99.90;;;;;;5045288;28;20139;-65
2023/03/14 12:44:31;;;;;;;4.75;1.40;;;7.60;99.90;;;;;;5045794;28;20367;-65
2023/03/14 12:47:00;;;;;;;4.93;2.08;;;7.30;99.90;;;;;;5040814;28;20037;-65
2023/03/14 12:49:35;;;;;;;3.83;1.55;;;7.30;99.90;;;;;;5040450;28;20558;-65
2023/03/14 12:52:01;;;;;;;4.20;1.20;;;7.30;99.90;;;;;;5042469;28;20040;-65
2023/03/14 12:54:57;;;;;;;6.28;2.00;;;7.30;99.90;;;;;;5042825;28;20543;-65
2023/03/14 12:57:26;;;;;;;7.13;1.50;;;7.40;99.90;;;;;;5039071;28;20068;-65